Terminal Aerodrome Forecast
Issued by NWS

Home | Current Version | Previous Version | Text Only | Print | Product List | Glossary On
Versions: 1 2 3 4 5 6 7 8 9 10 11 12 13 14 15
000
FTUS46 KLOX 250500 RRA
TAFSBA
TAF
KSBA 250543Z 2506/2606 32008KT P6SM BKN060 WS010/35040KT
      TEMPO 2506/2510 35015G25KT
     FM251200 33010KT P6SM SCT100 WS010/36030KT
     FM251800 30010KT P6SM SCT150
     FM260100 35008KT P6SM SKC WS010/01030KT=

USA.gov is the U.S. government's official web portal to all federal, state and local government web resources and services.